Time;durP1;ratioP1;P1;durP2;ratioP2;P2;SDS_P1;SDS_P2;PMS_P1;PMS_P2;Temp;Humidity;BMP_temperature;BMP_pressure;BME280_temperature;BME280_humidity;BME280_pressure;Samples;Min_cycle;Max_cycle;Signal;HPM_P1;HPM_P2
2022/12/08 00:01:27;;;;;;;3.70;1.58;;;;;;;1.80;100.00;100822.00;5056263;28;20044;-79
2022/12/08 00:03:56;;;;;;;4.85;1.58;;;;;;;1.80;100.00;100822.00;5058675;28;20055;-79
2022/12/08 00:09:33;;;;;;;4.05;1.67;;;;;;;1.79;100.00;100815.03;5072825;28;20051;-79
2022/12/08 00:12:07;;;;;;;4.45;1.58;;;;;;;1.79;100.00;100815.03;5065237;28;20040;-78
2022/12/08 00:14:37;;;;;;;3.83;1.38;;;;;;;1.78;100.00;100808.09;5056560;28;20044;-78
2022/12/08 00:17:07;;;;;;;6.35;2.13;;;;;;;1.74;100.00;100794.09;5049178;28;20383;-79
2022/12/08 00:19:35;;;;;;;5.45;1.67;;;;;;;1.75;100.00;100802.75;5059654;28;20052;-79
2022/12/08 00:22:02;;;;;;;6.45;1.65;;;;;;;1.74;100.00;100803.59;5063498;28;20047;-80
2022/12/08 00:24:32;;;;;;;6.32;2.17;;;;;;;1.73;100.00;100794.91;5067786;28;20048;-80
2022/12/08 00:27:00;;;;;;;4.78;1.63;;;;;;;1.70;100.00;100789.59;5042341;28;20049;-78
2022/12/08 00:29:27;;;;;;;3.13;1.70;;;;;;;1.69;100.00;100792.13;5064938;28;20044;-77
2022/12/08 00:31:55;;;;;;;3.45;1.58;;;;;;;1.68;100.00;100792.94;5018907;28;20033;-77
2022/12/08 00:34:23;;;;;;;6.85;1.50;;;;;;;1.65;100.00;100777.28;5068555;28;20049;-77
2022/12/08 00:36:50;;;;;;;6.68;1.40;;;;;;;1.64;100.00;100775.47;5052766;28;20040;-78
2022/12/08 00:39:18;;;;;;;3.10;1.08;;;;;;;1.61;100.00;100770.16;5057832;28;20056;-78
2022/12/08 00:44:32;;;;;;;2.78;1.02;;;;;;;1.55;100.00;100755.22;5048502;28;20051;-78
2022/12/08 00:46:59;;;;;;;2.92;1.13;;;;;;;1.53;100.00;100754.28;5041394;28;20056;-78
2022/12/08 00:49:26;;;;;;;4.10;1.05;;;;;;;1.49;100.00;100755.00;5059276;28;20049;-78
2022/12/08 00:51:54;;;;;;;3.58;1.30;;;;;;;1.49;100.00;100752.41;5067165;28;20052;-78
2022/12/08 00:54:22;;;;;;;1.70;1.00;;;;;;;1.47;100.00;100752.34;5073132;28;20052;-78
2022/12/08 00:56:50;;;;;;;2.35;0.85;;;;;;;1.46;100.00;100752.31;5061262;28;20075;-78
2022/12/08 00:59:18;;;;;;;1.10;1.00;;;;;;;1.44;100.00;100740.97;5051594;28;20501;-78
2022/12/08 01:01:46;;;;;;;1.38;1.05;;;;;;;1.45;100.00;100733.22;5025560;28;20052;-78
2022/12/08 01:04:17;;;;;;;2.53;1.05;;;;;;;1.46;100.00;100728.94;5054473;28;20559;-78
2022/12/08 01:06:44;;;;;;;4.65;1.27;;;;;;;1.43;100.00;100741.78;5052938;28;20056;-78
2022/12/08 01:09:14;;;;;;;2.28;1.05;;;;;;;1.38;100.00;100741.63;5062196;28;20036;-77
2022/12/08 01:11:43;;;;;;;1.02;0.93;;;;;;;1.35;100.00;100749.28;5044256;28;20052;-78
2022/12/08 01:14:11;;;;;;;3.40;1.10;;;;;;;1.36;100.00;100751.03;5051914;28;20048;-78
2022/12/08 01:16:40;;;;;;;3.88;1.20;;;;;;;1.39;100.00;100761.56;5038872;28;20049;-77
2022/12/08 01:19:12;;;;;;;4.32;1.33;;;;;;;1.42;100.00;100766.88;5054360;28;20045;-78
2022/12/08 01:21:40;;;;;;;3.75;1.05;;;;;;;1.48;100.00;100787.88;5049146;28;20045;-77
2022/12/08 01:24:16;;;;;;;1.38;0.82;;;;;;;1.53;100.00;100782.84;5067370;28;20064;-79
2022/12/08 01:26:44;;;;;;;5.60;0.98;;;;;;;1.58;100.00;100786.53;5053586;28;20052;-77
2022/12/08 01:29:12;;;;;;;1.67;0.80;;;;;;;1.62;100.00;100783.22;5043342;28;20045;-77
2022/12/08 01:31:39;;;;;;;2.80;0.70;;;;;;;1.65;100.00;100782.47;5047331;28;20051;-77
2022/12/08 01:34:09;;;;;;;0.95;0.75;;;;;;;1.65;100.00;100775.53;5046431;28;20048;-78
2022/12/08 01:36:37;;;;;;;0.80;0.70;;;;;;;1.65;100.00;100780.75;5059527;28;20043;-78
2022/12/08 01:39:07;;;;;;;2.30;0.80;;;;;;;1.63;100.00;100773.72;5063727;28;20045;-78
2022/12/08 01:41:37;;;;;;;0.70;0.70;;;;;;;1.62;100.00;100779.75;5074536;28;20044;-78
2022/12/08 01:44:07;;;;;;;0.57;0.52;;;;;;;1.60;100.00;100773.59;5053328;28;20044;-78
2022/12/08 01:46:36;;;;;;;0.70;0.70;;;;;;;1.59;100.00;100783.13;5038173;28;20462;-78
2022/12/08 01:49:21;;;;;;;2.58;0.98;;;;;;;1.57;100.00;100776.97;5062919;28;20045;-78
2022/12/08 01:52:10;;;;;;;2.35;0.63;;;;;;;1.48;100.00;100768.84;5076892;28;20037;-77
2022/12/08 01:54:44;;;;;;;1.27;0.52;;;;;;;1.40;100.00;100778.91;5041148;28;20417;-78
2022/12/08 01:57:17;;;;;;;2.05;0.60;;;;;;;1.33;100.00;100770.00;5062991;28;20055;-78
2022/12/08 01:59:50;;;;;;;0.73;0.60;;;;;;;1.28;100.00;100766.31;5059863;28;20052;-78
2022/12/08 02:02:18;;;;;;;4.20;1.27;;;;;;;1.23;100.00;100766.97;5074543;28;20044;-79
2022/12/08 02:04:45;;;;;;;1.35;0.70;;;;;;;1.13;100.00;100750.13;5023935;28;20037;-78
2022/12/08 02:07:15;;;;;;;2.97;0.68;;;;;;;1.06;100.00;100746.44;5060524;28;20052;-79
2022/12/08 02:09:43;;;;;;;4.47;0.65;;;;;;;1.00;100.00;100751.34;5065572;28;20056;-78
2022/12/08 02:12:11;;;;;;;0.57;0.52;;;;;;;0.96;100.00;100746.88;5041032;28;20040;-79
2022/12/08 02:14:38;;;;;;;0.95;0.70;;;;;;;0.93;100.00;100737.25;5067118;28;20421;-78
2022/12/08 02:17:18;;;;;;;0.93;0.70;;;;;;;0.92;100.00;100734.59;5061209;28;20048;-78
2022/12/08 02:20:31;;;;;;;0.88;0.80;;;;;;;0.93;100.00;100732.06;5028140;28;20048;-77
2022/12/08 02:23:39;;;;;;;4.38;0.70;;;;;;;0.94;100.00;100717.38;5040587;28;20386;-78
2022/12/08 02:26:28;;;;;;;1.65;0.70;;;;;;;0.96;100.00;100715.72;5051936;28;20059;-77
2022/12/08 02:29:10;;;;;;;2.03;0.85;;;;;;;0.97;100.00;100718.41;5051701;28;20056;-78
2022/12/08 02:32:25;;;;;;;3.35;0.70;;;;;;;0.97;100.00;100713.22;5045684;28;20112;-78
2022/12/08 02:35:08;;;;;;;0.90;0.70;;;;;;;1.00;100.00;100716.75;4968274;28;20142;-78
2022/12/08 02:38:04;;;;;;;2.08;0.70;;;;;;;0.99;100.00;100704.63;5010397;28;20050;-78
2022/12/08 02:40:34;;;;;;;0.73;0.73;;;;;;;1.00;100.00;100696.84;5053043;28;20044;-78
2022/12/08 02:43:25;;;;;;;2.20;0.80;;;;;;;1.02;100.00;100678.75;5054087;28;20052;-78
2022/12/08 02:46:01;;;;;;;;;;;;;;;1.06;100.00;100681.56;5052134;28;20084;-78
2022/12/08 02:48:29;;;;;;;0.68;0.65;;;;;;;1.08;100.00;100684.22;5048059;28;19931;-77
2022/12/08 02:50:56;;;;;;;2.13;0.80;;;;;;;1.09;100.00;100686.84;5000872;28;20049;-78
2022/12/08 02:53:26;;;;;;;1.58;0.73;;;;;;;1.08;100.00;100682.50;5031524;28;20042;-78
2022/12/08 02:56:21;;;;;;;3.22;0.95;;;;;;;1.09;100.00;100681.66;5028870;28;20037;-79
2022/12/08 02:59:06;;;;;;;2.05;0.80;;;;;;;1.09;100.00;100692.03;5031083;28;20041;-78
2022/12/08 03:02:21;;;;;;;3.80;1.58;;;;;;;1.09;100.00;100692.03;5027887;28;20045;-79
2022/12/08 03:05:01;;;;;;;2.42;0.70;;;;;;;1.10;100.00;100705.91;5005508;28;20056;-79
2022/12/08 03:07:38;;;;;;;1.27;0.75;;;;;;;1.11;100.00;100711.16;4987051;28;20418;-77
2022/12/08 03:10:15;;;;;;;4.03;0.85;;;;;;;1.13;100.00;100725.06;5033724;28;20049;-77
2022/12/08 03:12:51;;;;;;;0.80;0.80;;;;;;;1.16;100.00;100725.19;5045231;28;20052;-77
2022/12/08 03:15:20;;;;;;;0.73;0.73;;;;;;;1.19;100.00;100723.53;5042524;28;20056;-78
2022/12/08 03:17:56;;;;;;;2.70;0.70;;;;;;;1.22;100.00;100716.75;5034686;28;20053;-77
2022/12/08 03:20:26;;;;;;;2.00;0.82;;;;;;;1.26;100.00;100716.06;5033955;28;20045;-78
2022/12/08 03:22:58;;;;;;;2.23;0.80;;;;;;;1.28;100.00;100716.13;5007828;28;20391;-78
2022/12/08 03:25:29;;;;;;;3.35;1.10;;;;;;;1.30;100.00;100704.06;5027428;28;20049;-78
2022/12/08 03:27:58;;;;;;;1.30;0.75;;;;;;;1.30;100.00;100701.47;5025441;28;20045;-77
2022/12/08 03:30:29;;;;;;;5.28;1.52;;;;;;;1.29;100.00;100684.16;5038649;28;20054;-77
2022/12/08 03:33:06;;;;;;;1.55;0.80;;;;;;;1.29;100.00;100678.97;5031934;28;20048;-77
2022/12/08 03:35:38;;;;;;;0.90;0.63;;;;;;;1.29;100.00;100673.75;5025437;28;20053;-78
2022/12/08 03:38:11;;;;;;;0.82;0.70;;;;;;;1.28;100.00;100674.56;5026692;28;20045;-78
2022/12/08 03:40:40;;;;;;;2.47;1.00;;;;;;;1.26;100.00;100668.44;5044367;28;20076;-77
2022/12/08 03:43:09;;;;;;;1.45;0.98;;;;;;;1.25;100.00;100675.34;5047628;28;20049;-79
2022/12/08 03:45:36;;;;;;;0.93;0.70;;;;;;;1.22;100.00;100659.66;5030347;28;20139;-80
2022/12/08 03:48:04;;;;;;;1.65;0.63;;;;;;;1.22;100.00;100663.97;5048901;28;20453;-79
2022/12/08 03:50:31;;;;;;;0.60;0.60;;;;;;;1.21;100.00;100663.09;5045473;28;20409;-78
2022/12/08 03:52:58;;;;;;;2.10;0.88;;;;;;;1.17;100.00;100668.97;5028237;28;20044;-78
2022/12/08 03:55:25;;;;;;;1.20;0.70;;;;;;;1.15;100.00;100678.41;5055365;28;20512;-79
2022/12/08 03:57:53;;;;;;;0.60;0.60;;;;;;;1.12;100.00;100670.53;5068349;28;20044;-78
2022/12/08 04:00:20;;;;;;;3.67;0.70;;;;;;;1.09;100.00;100670.41;5040436;28;20055;-79
2022/12/08 04:02:47;;;;;;;0.60;0.60;;;;;;;1.07;100.00;100659.94;5068383;28;20493;-79
2022/12/08 04:05:15;;;;;;;1.98;0.65;;;;;;;1.04;100.00;100652.06;5053294;28;20056;-78
2022/12/08 04:07:42;;;;;;;0.60;0.60;;;;;;;1.03;100.00;100649.41;5000437;28;20071;-77
2022/12/08 04:10:09;;;;;;;2.15;0.60;;;;;;;1.01;100.00;100667.50;5072956;28;20408;-78
2022/12/08 04:12:37;;;;;;;1.70;0.70;;;;;;;0.99;100.00;100656.19;5070288;28;20040;-78
2022/12/08 04:15:05;;;;;;;3.40;1.73;;;;;;;0.97;100.00;100655.25;5066782;28;20044;-79
2022/12/08 04:17:32;;;;;;;1.55;1.08;;;;;;;0.96;100.00;100643.09;5054567;28;20057;-78
2022/12/08 04:19:59;;;;;;;2.63;1.00;;;;;;;0.96;100.00;100638.81;5071563;28;20048;-78
2022/12/08 04:22:26;;;;;;;0.77;0.73;;;;;;;0.97;100.00;100632.75;5053967;28;20504;-78
2022/12/08 04:24:54;;;;;;;0.90;0.90;;;;;;;0.97;100.00;100639.69;5048056;28;20060;-79
2022/12/08 04:27:21;;;;;;;0.98;0.70;;;;;;;0.97;100.00;100645.75;5058676;28;20052;-78
2022/12/08 04:29:48;;;;;;;0.85;0.85;;;;;;;0.97;100.00;100650.94;5064871;28;20044;-79
2022/12/08 04:32:16;;;;;;;1.02;0.90;;;;;;;0.96;100.00;100641.41;5051211;28;20048;-79
2022/12/08 04:34:43;;;;;;;2.38;0.95;;;;;;;0.99;100.00;100643.22;5043918;28;20497;-79
2022/12/08 04:37:10;;;;;;;1.05;0.88;;;;;;;1.01;100.00;100649.34;5043094;28;20056;-78
2022/12/08 04:39:38;;;;;;;1.48;0.90;;;;;;;1.02;100.00;100653.72;5039719;28;20040;-78
2022/12/08 04:42:05;;;;;;;1.80;0.95;;;;;;;1.05;100.00;100660.72;5071726;28;20056;-79
2022/12/08 04:44:32;;;;;;;1.00;0.85;;;;;;;1.07;100.00;100667.72;5065072;28;20043;-79
2022/12/08 04:46:59;;;;;;;0.80;0.80;;;;;;;1.08;100.00;100669.53;5035410;28;20056;-80
2022/12/08 04:49:27;;;;;;;4.65;0.98;;;;;;;1.09;100.00;100666.09;5052966;28;20056;-78
2022/12/08 04:51:54;;;;;;;1.75;1.17;;;;;;;1.09;100.00;100668.69;5053349;28;20051;-76
2022/12/08 04:54:21;;;;;;;0.70;0.70;;;;;;;1.10;100.00;100667.88;5022874;28;20033;-78
2022/12/08 04:56:49;;;;;;;3.92;0.90;;;;;;;1.10;100.00;100674.78;5065371;28;20049;-77
2022/12/08 04:59:16;;;;;;;1.63;1.00;;;;;;;1.09;100.00;100670.41;5071475;28;20492;-77
2022/12/08 05:01:43;;;;;;;1.35;0.82;;;;;;;1.07;100.00;100678.13;5037971;28;20056;-78
2022/12/08 05:04:11;;;;;;;1.15;1.00;;;;;;;1.06;100.00;100655.59;5046329;28;20051;-78
2022/12/08 05:06:38;;;;;;;2.30;0.85;;;;;;;1.07;100.00;100659.94;5045594;28;21065;-77
2022/12/08 05:09:05;;;;;;;1.52;0.95;;;;;;;1.09;100.00;100650.50;5039791;28;20052;-77
2022/12/08 05:11:33;;;;;;;0.70;0.70;;;;;;;1.10;100.00;100647.09;5031392;28;20049;-77
2022/12/08 05:14:00;;;;;;;3.83;0.90;;;;;;;1.13;100.00;100646.31;5056377;28;20037;-79
2022/12/08 05:16:27;;;;;;;0.80;0.68;;;;;;;1.15;100.00;100648.19;5035085;28;20065;-79
2022/12/08 05:18:54;;;;;;;1.70;0.80;;;;;;;1.17;100.00;100643.91;5071752;28;20041;-78
2022/12/08 05:21:21;;;;;;;0.95;0.70;;;;;;;1.20;100.00;100637.06;5064966;28;20071;-79
2022/12/08 05:23:49;;;;;;;0.63;0.63;;;;;;;1.23;100.00;100631.97;5064848;28;20480;-78
2022/12/08 05:26:16;;;;;;;3.30;0.70;;;;;;;1.23;100.00;100624.19;5022318;28;20048;-78
2022/12/08 05:28:43;;;;;;;2.83;0.88;;;;;;;1.24;100.00;100634.63;5072138;28;20048;-78
2022/12/08 05:31:12;;;;;;;1.25;0.60;;;;;;;1.24;100.00;100629.44;5028026;28;20048;-78
2022/12/08 05:33:40;;;;;;;3.22;0.80;;;;;;;1.24;100.00;100623.38;5071993;28;20382;-78
2022/12/08 05:36:09;;;;;;;2.40;1.40;;;;;;;1.23;100.00;100621.59;5035050;28;20056;-77
2022/12/08 05:38:36;;;;;;;4.22;0.70;;;;;;;1.20;100.00;100618.91;5051390;28;20040;-78
2022/12/08 05:41:05;;;;;;;1.58;1.48;;;;;;;1.15;100.00;100624.81;5038838;28;20048;-78
2022/12/08 05:43:33;;;;;;;1.20;1.10;;;;;;;1.10;100.00;100623.75;5027129;28;20041;-78
2022/12/08 05:46:00;;;;;;;2.50;0.90;;;;;;;1.08;100.00;100620.22;5069700;28;20048;-78
2022/12/08 05:48:28;;;;;;;1.98;0.80;;;;;;;1.07;100.00;100621.03;5065375;28;20060;-80
2022/12/08 05:50:55;;;;;;;4.22;0.80;;;;;;;1.02;100.00;100627.78;5048356;28;20055;-77
2022/12/08 05:53:22;;;;;;;1.02;0.90;;;;;;;0.96;100.00;100632.69;5040448;28;20413;-77
2022/12/08 05:55:50;;;;;;;2.88;0.85;;;;;;;0.88;100.00;100628.94;5018737;28;20032;-77
2022/12/08 05:58:19;;;;;;;1.70;0.90;;;;;;;0.81;100.00;100627.81;5057212;28;20045;-78
2022/12/08 06:00:47;;;;;;;1.60;0.90;;;;;;;0.75;100.00;100624.97;5069458;28;20045;-78
2022/12/08 06:03:16;;;;;;;6.80;1.00;;;;;;;0.68;100.00;100626.47;5065898;28;20051;-77
2022/12/08 06:05:45;;;;;;;3.55;0.90;;;;;;;0.62;100.00;100628.78;5035558;28;20051;-77
2022/12/08 06:08:13;;;;;;;3.63;0.90;;;;;;;0.57;100.00;100615.66;5062373;28;20059;-76
2022/12/08 06:10:42;;;;;;;2.03;0.90;;;;;;;0.54;100.00;100614.63;5043773;28;20975;-77
2022/12/08 06:13:09;;;;;;;3.97;1.13;;;;;;;0.51;100.00;100615.41;5032571;28;20041;-76
2022/12/08 06:15:37;;;;;;;0.70;0.70;;;;;;;0.50;100.00;100611.03;5065669;28;20044;-85
2022/12/08 06:18:06;;;;;;;8.23;0.90;;;;;;;0.49;100.00;100616.16;5046107;28;20135;-85
2022/12/08 06:20:34;;;;;;;3.00;1.10;;;;;;;0.48;100.00;100614.41;5044213;28;20059;-84
2022/12/08 06:23:02;;;;;;;2.75;1.10;;;;;;;0.47;100.00;100616.09;5048140;28;20431;-85
2022/12/08 06:25:29;;;;;;;4.30;1.40;;;;;;;0.47;100.00;100623.88;5045926;28;20544;-85
2022/12/08 06:27:57;;;;;;;3.10;0.95;;;;;;;0.48;100.00;100622.19;5030747;28;20049;-86
2022/12/08 06:30:24;;;;;;;1.00;0.90;;;;;;;0.49;100.00;100623.94;5039502;28;20044;-85
2022/12/08 06:32:52;;;;;;;2.30;1.00;;;;;;;0.49;100.00;100614.47;5053811;28;20056;-86
2022/12/08 06:35:21;;;;;;;2.90;1.00;;;;;;;0.47;100.00;100620.41;5070541;28;20036;-87
2022/12/08 06:37:50;;;;;;;2.25;1.20;;;;;;;0.46;100.00;100619.53;5058953;28;20057;-85
2022/12/08 06:40:17;;;;;;;3.40;1.35;;;;;;;0.43;100.00;100634.94;5030770;28;20055;-85
2022/12/08 06:42:45;;;;;;;2.20;1.50;;;;;;;0.41;100.00;100623.63;5038748;28;20044;-84
2022/12/08 06:45:15;;;;;;;2.38;1.17;;;;;;;0.40;100.00;100624.47;5032767;28;20040;-85
2022/12/08 06:47:43;;;;;;;1.75;1.30;;;;;;;0.40;100.00;100632.25;5060143;28;20059;-85
2022/12/08 06:50:12;;;;;;;1.27;1.15;;;;;;;0.39;100.00;100628.75;5075504;28;20060;-84
2022/12/08 06:52:41;;;;;;;2.28;1.40;;;;;;;0.38;100.00;100631.31;5041769;28;20489;-85
2022/12/08 06:55:24;;;;;;;2.67;1.17;;;;;;;0.38;100.00;100631.31;5052974;28;20063;-84
2022/12/08 06:58:12;;;;;;;1.25;1.15;;;;;;;0.35;100.00;100639.81;5030485;28;20053;-84
2022/12/08 07:00:40;;;;;;;1.48;1.35;;;;;;;0.35;100.00;100641.53;5077416;28;20044;-84
2022/12/08 07:03:09;;;;;;;3.42;1.65;;;;;;;0.34;100.00;100644.94;5058009;28;20060;-84
2022/12/08 07:05:37;;;;;;;4.22;1.45;;;;;;;0.35;100.00;100647.59;5076887;28;20040;-84
2022/12/08 07:08:07;;;;;;;3.30;1.60;;;;;;;0.39;100.00;100665.03;5069906;28;20146;-84
2022/12/08 07:10:35;;;;;;;2.55;1.63;;;;;;;0.42;100.00;100663.38;5056697;28;20052;-85
2022/12/08 07:13:03;;;;;;;6.10;1.90;;;;;;;0.42;100.00;100660.78;5054129;28;20058;-84
2022/12/08 07:15:30;;;;;;;2.38;2.00;;;;;;;0.39;100.00;100664.16;5040565;28;20060;-85
2022/12/08 07:17:58;;;;;;;4.72;1.90;;;;;;;0.41;100.00;100672.00;5043487;28;20568;-84
2022/12/08 07:20:27;;;;;;;3.10;1.90;;;;;;;0.42;100.00;100673.75;5031254;28;20048;-85
2022/12/08 07:22:54;;;;;;;5.75;2.38;;;;;;;0.43;100.00;100662.59;5057264;28;20049;-85
2022/12/08 07:25:22;;;;;;;6.57;2.40;;;;;;;0.42;100.00;100666.91;5056933;28;20041;-85
2022/12/08 07:27:51;;;;;;;6.65;2.75;;;;;;;0.41;100.00;100659.03;5044479;28;20527;-85
2022/12/08 07:30:19;;;;;;;4.47;2.60;;;;;;;0.38;100.00;100658.09;5049612;28;20044;-86
2022/12/08 07:32:46;;;;;;;9.20;3.85;;;;;;;0.36;100.00;100658.88;5069805;28;20037;-85
2022/12/08 07:35:13;;;;;;;7.55;3.20;;;;;;;0.35;100.00;100657.97;5045323;28;20062;-85
2022/12/08 07:37:41;;;;;;;10.60;3.63;;;;;;;0.32;100.00;100654.34;5078047;28;20052;-85
2022/12/08 07:40:09;;;;;;;3.70;2.85;;;;;;;0.31;100.00;100653.47;5043783;28;20052;-85
2022/12/08 07:42:37;;;;;;;5.35;2.90;;;;;;;0.30;100.00;100645.63;5049899;28;20051;-86
2022/12/08 07:45:05;;;;;;;5.63;3.20;;;;;;;0.27;100.00;100651.59;5023801;28;20044;-86
2022/12/08 07:47:32;;;;;;;6.35;2.80;;;;;;;0.26;100.00;100654.97;5057701;28;20044;-84
2022/12/08 07:49:59;;;;;;;5.40;2.90;;;;;;;0.25;100.00;100650.63;5020040;28;20053;-85
2022/12/08 07:52:26;;;;;;;7.68;2.80;;;;;;;0.24;100.00;100664.41;5046153;28;20044;-85
2022/12/08 07:54:54;;;;;;;5.28;2.88;;;;;;;0.24;100.00;100659.22;5037618;28;20052;-83
2022/12/08 07:57:21;;;;;;;4.68;3.38;;;;;;;0.23;100.00;100660.06;5045584;28;20587;-83
2022/12/08 07:59:49;;;;;;;9.98;3.47;;;;;;;0.21;100.00;100666.88;5070958;28;20060;-84
2022/12/08 08:02:18;;;;;;;3.65;3.33;;;;;;;0.18;100.00;100666.75;5009462;28;20052;-84
2022/12/08 08:04:53;;;;;;;6.38;3.97;;;;;;;0.16;100.00;100663.22;5047255;28;20040;-83
2022/12/08 08:07:20;;;;;;;5.53;3.67;;;;;;;0.14;100.00;100651.91;5061571;28;20060;-84
2022/12/08 08:09:47;;;;;;;11.60;3.17;;;;;;;0.13;100.00;100656.19;5067455;28;20048;-83
2022/12/08 08:12:15;;;;;;;4.63;3.08;;;;;;;0.10;100.00;100666.44;5030924;28;20414;-85
2022/12/08 08:14:59;;;;;;;7.38;3.20;;;;;;;0.08;100.00;100667.19;5060051;28;20037;-84
2022/12/08 08:17:27;;;;;;;5.40;2.70;;;;;;;0.04;100.00;100673.94;5013491;28;20067;-85
2022/12/08 08:19:55;;;;;;;4.30;2.75;;;;;;;0.03;100.00;100666.97;5033616;28;20067;-84
2022/12/08 08:22:27;;;;;;;3.72;2.58;;;;;;;0.02;100.00;100673.00;5048217;28;20524;-85
2022/12/08 08:24:54;;;;;;;3.30;2.38;;;;;;;0.01;100.00;100671.22;5041504;28;20071;-84
2022/12/08 08:27:21;;;;;;;6.40;2.50;;;;;;;0.00;100.00;100677.22;5067275;28;20051;-84
2022/12/08 08:29:49;;;;;;;4.40;1.88;;;;;;;0.02;100.00;100677.28;5022930;28;20132;-83
2022/12/08 08:32:16;;;;;;;5.63;1.98;;;;;;;0.02;100.00;100675.59;5036868;28;20062;-84
2022/12/08 08:34:44;;;;;;;5.85;1.88;;;;;;;0.06;100.00;100666.22;5025386;28;20037;-85
2022/12/08 08:37:13;;;;;;;2.88;1.85;;;;;;;0.09;100.00;100676.72;5039010;28;20489;-85
2022/12/08 08:39:41;;;;;;;2.40;1.67;;;;;;;0.12;100.00;100676.88;5040271;28;20044;-87
2022/12/08 08:42:09;;;;;;;5.22;1.88;;;;;;;0.16;100.00;100677.03;5069245;28;20044;-85
2022/12/08 08:44:37;;;;;;;6.88;1.70;;;;;;;0.20;100.00;100678.06;5051582;28;20060;-85
2022/12/08 08:47:05;;;;;;;2.83;1.75;;;;;;;0.24;100.00;100674.78;5012089;28;20056;-85
2022/12/08 08:49:32;;;;;;;2.58;1.85;;;;;;;0.28;100.00;100675.78;4992500;28;20045;-85
2022/12/08 08:51:59;;;;;;;2.42;1.70;;;;;;;0.30;100.00;100668.97;5028974;28;21246;-86
2022/12/08 08:54:30;;;;;;;3.50;2.00;;;;;;;0.32;100.00;100663.03;5020104;28;20052;-84
2022/12/08 08:56:58;;;;;;;2.15;1.95;;;;;;;0.35;100.00;100672.63;5035208;28;20365;-85
2022/12/08 08:59:27;;;;;;;2.45;2.00;;;;;;;0.37;100.00;100668.41;5018859;28;20045;-85
2022/12/08 09:01:56;;;;;;;3.78;2.03;;;;;;;0.41;100.00;100669.41;5027123;28;20491;-85
2022/12/08 09:04:24;;;;;;;3.45;2.13;;;;;;;0.43;100.00;100666.06;5014748;28;20049;-85
2022/12/08 09:06:51;;;;;;;4.18;1.90;;;;;;;0.47;100.00;100659.28;5035770;28;20041;-85
2022/12/08 09:09:19;;;;;;;5.93;2.33;;;;;;;0.51;100.00;100664.69;5025066;28;20061;-85
2022/12/08 09:11:46;;;;;;;3.42;1.95;;;;;;;0.56;100.00;100668.31;5033723;28;20050;-84
2022/12/08 09:14:14;;;;;;;4.40;2.15;;;;;;;0.62;100.00;100661.63;5030518;28;20049;-83
2022/12/08 09:16:43;;;;;;;3.40;2.22;;;;;;;0.67;100.00;100668.75;5012846;28;20053;-83
2022/12/08 09:19:10;;;;;;;4.93;2.15;;;;;;;0.73;100.00;100668.13;5014387;28;20049;-83
2022/12/08 09:21:38;;;;;;;4.05;2.20;;;;;;;0.77;100.00;100655.31;5015499;28;20049;-83
2022/12/08 09:24:07;;;;;;;4.45;1.95;;;;;;;0.81;100.00;100660.66;5007021;28;20080;-84
2022/12/08 09:26:34;;;;;;;4.50;2.50;;;;;;;0.85;100.00;100662.53;5030479;28;20056;-83
2022/12/08 09:29:02;;;;;;;5.53;2.20;;;;;;;0.89;100.00;100667.00;5033837;28;20060;-84
2022/12/08 09:31:29;;;;;;;4.95;2.08;;;;;;;0.94;100.00;100676.75;5014741;28;20502;-84
2022/12/08 09:33:56;;;;;;;5.68;2.40;;;;;;;1.00;100.00;100673.50;5013612;28;20510;-85
2022/12/08 09:36:25;;;;;;;3.00;1.73;;;;;;;1.06;100.00;100671.19;5025482;28;20048;-84
2022/12/08 09:38:53;;;;;;;5.18;2.15;;;;;;;1.11;100.00;100674.81;5018604;28;20056;-83
2022/12/08 09:41:48;;;;;;;7.25;2.95;;;;;;;1.16;100.00;100673.28;5025734;28;20057;-83
2022/12/08 09:44:41;;;;;;;6.10;2.38;;;;;;;1.24;100.00;100680.50;5028945;28;20033;-83
2022/12/08 09:47:39;;;;;;;4.13;1.98;;;;;;;1.28;100.00;100688.44;5022610;28;20499;-83
2022/12/08 09:50:28;;;;;;;4.65;2.00;;;;;;;1.30;100.00;100688.50;5000525;28;20431;-82
2022/12/08 09:52:55;;;;;;;2.47;1.50;;;;;;;1.33;100.00;100680.84;5026068;28;20049;-83
2022/12/08 09:55:50;;;;;;;5.57;1.67;;;;;;;1.35;100.00;100681.78;5026605;28;20044;-83
2022/12/08 09:58:28;;;;;;;1.95;1.40;;;;;;;1.43;100.00;100677.75;5020323;28;20053;-82
2022/12/08 10:00:56;;;;;;;2.88;1.63;;;;;;;1.48;100.00;100673.63;5022804;28;20057;-82
2022/12/08 10:03:29;;;;;;;3.58;1.70;;;;;;;1.59;100.00;100679.22;5008160;28;20049;-83
2022/12/08 10:06:02;;;;;;;4.55;1.92;;;;;;;1.66;100.00;100672.50;5012135;28;20049;-83
2022/12/08 10:08:45;;;;;;;2.95;1.63;;;;;;;1.72;100.00;100670.13;5039424;28;20072;-83
2022/12/08 10:11:20;;;;;;;3.35;1.40;;;;;;;1.77;100.00;100658.19;5038163;28;20049;-83
2022/12/08 10:14:11;;;;;;;3.63;1.45;;;;;;;1.77;100.00;100658.19;5050853;28;20041;-83
2022/12/08 10:16:44;;;;;;;3.83;1.35;;;;;;;1.75;100.00;100655.53;5024493;28;20037;-83
2022/12/08 10:19:22;;;;;;;2.85;1.50;;;;;;;1.74;100.00;100661.59;5019010;28;20507;-84
2022/12/08 10:21:51;;;;;;;4.47;1.60;;;;;;;1.71;100.00;100665.78;5014193;28;20053;-84
2022/12/08 10:24:31;;;;;;;4.88;1.40;;;;;;;1.68;100.00;100665.66;5027888;28;20030;-83
2022/12/08 10:27:00;;;;;;;1.90;1.33;;;;;;;1.68;100.00;100663.06;5029146;28;20042;-83
2022/12/08 10:29:27;;;;;;;3.50;1.27;;;;;;;1.72;100.00;100664.94;5048947;28;20053;-84
2022/12/08 10:31:58;;;;;;;6.25;1.35;;;;;;;1.79;100.00;100671.25;5030491;28;20072;-83
2022/12/08 10:34:26;;;;;;;5.55;1.42;;;;;;;1.84;100.00;100670.59;5023321;28;20415;-84
2022/12/08 10:36:59;;;;;;;2.72;1.25;;;;;;;1.93;100.00;100673.50;5016152;28;20049;-83
2022/12/08 10:39:38;;;;;;;5.50;1.70;;;;;;;2.03;100.00;100672.13;5042636;28;23158;-84
2022/12/08 10:42:06;;;;;;;7.47;1.60;;;;;;;2.11;100.00;100675.84;5048867;28;20038;-84
2022/12/08 10:44:48;;;;;;;3.60;1.25;;;;;;;2.18;100.00;100682.16;5050978;28;20045;-82
2022/12/08 10:47:20;;;;;;;4.95;1.60;;;;;;;2.24;100.00;100681.50;5031025;28;20049;-83
2022/12/08 10:50:05;;;;;;;6.00;1.55;;;;;;;2.30;100.00;100679.09;5063633;28;20049;-83
2022/12/08 10:52:38;;;;;;;4.57;1.20;;;;;;;2.32;100.00;100673.09;5042216;28;20060;-83
2022/12/08 10:55:20;;;;;;;2.95;1.40;;;;;;;2.40;100.00;100672.47;5050687;28;20045;-83
2022/12/08 10:57:47;;;;;;;7.47;1.65;;;;;;;2.44;100.00;100666.53;5042454;28;20041;-85
2022/12/08 11:00:18;;;;;;;3.83;2.22;;;;;;;2.50;100.00;100670.25;5036567;28;20049;-83
2022/12/08 11:02:57;;;;;;;1.60;1.35;;;;;;;2.58;100.00;100662.69;5066345;28;20041;-83
2022/12/08 11:05:32;;;;;;;1.83;1.40;;;;;;;2.65;100.00;100667.28;5043230;28;21282;-82
2022/12/08 11:08:00;;;;;;;2.38;1.48;;;;;;;2.71;100.00;100658.78;5050763;28;20410;-82
2022/12/08 11:10:33;;;;;;;2.80;1.55;;;;;;;2.77;100.00;100658.97;5014164;28;20096;-84
2022/12/08 11:13:04;;;;;;;3.78;1.45;;;;;;;2.84;100.00;100655.72;5051598;28;20052;-83
2022/12/08 11:15:36;;;;;;;3.70;1.20;;;;;;;2.92;100.00;100653.34;5056796;28;20484;-83
2022/12/08 11:18:28;;;;;;;4.80;1.30;;;;;;;2.97;100.00;100648.28;5059049;28;20060;-82
2022/12/08 11:21:11;;;;;;;4.93;1.23;;;;;;;3.04;100.00;100653.72;5036174;28;20044;-82
2022/12/08 11:23:41;;;;;;;5.85;2.42;;;;;;;3.11;100.00;100654.81;5036007;28;20045;-84
2022/12/08 11:26:24;;;;;;;2.00;1.23;;;;;;;3.19;100.00;100660.25;5059564;28;20048;-84
2022/12/08 11:28:52;;;;;;;2.00;1.00;;;;;;;3.24;100.00;100656.94;5050130;28;20048;-85
2022/12/08 11:31:27;;;;;;;3.20;1.20;;;;;;;3.29;100.00;100655.38;5062931;28;20052;-85
2022/12/08 11:33:55;;;;;;;2.33;1.40;;;;;;;3.30;100.00;100656.25;5046539;28;20052;-84
2022/12/08 11:36:25;;;;;;;0.88;0.88;;;;;;;3.30;100.00;100657.13;5043024;28;20063;-84
2022/12/08 11:38:58;;;;;;;;;;;;;;;3.28;100.00;100658.78;5045240;28;20045;-83
2022/12/08 11:41:34;;;;;;;4.65;1.00;;;;;;;3.32;100.00;100659.78;5053450;28;19921;-80
2022/12/08 11:44:46;;;;;;;1.13;0.73;;;;;;;3.39;100.00;100655.63;5045255;28;20066;-82
2022/12/08 11:47:25;;;;;;;1.98;0.70;;;;;;;3.42;100.00;100648.81;5043087;28;20045;-82
2022/12/08 11:50:01;;;;;;;1.58;0.80;;;;;;;3.41;100.00;100660.03;5073249;28;20060;-81
2022/12/08 11:52:40;;;;;;;2.05;0.95;;;;;;;3.44;100.00;100647.13;5041888;28;20044;-81